createdAt,value
2023-05-08T00:00:06.521Z,31.02
2023-05-08T00:01:06.513Z,29.74
2023-05-08T00:02:06.494Z,31.02
2023-05-08T00:03:06.538Z,28.31
2023-05-08T00:04:06.719Z,28.52
2023-05-08T00:05:06.621Z,29.92
2023-05-08T00:06:06.451Z,31.35
2023-05-08T00:07:06.468Z,30.50
2023-05-08T00:08:06.442Z,30.00
2023-05-08T00:09:06.419Z,31.08
2023-05-08T00:10:06.433Z,33.24
2023-05-08T00:11:06.430Z,30.37
2023-05-08T00:12:06.423Z,31.29
2023-05-08T00:13:06.465Z,29.16
2023-05-08T00:14:06.431Z,31.18
2023-05-08T00:15:06.400Z,32.21
2023-05-08T00:16:06.447Z,27.59
2023-05-08T00:17:06.480Z,30.15
2023-05-08T00:18:06.430Z,30.29
2023-05-08T00:19:06.367Z,31.92
2023-05-08T00:20:06.385Z,31.75
2023-05-08T00:21:06.354Z,32.65
2023-05-08T00:22:06.344Z,30.18
2023-05-08T00:23:06.338Z,31.09
2023-05-08T00:24:06.325Z,29.21
2023-05-08T00:25:06.306Z,31.63
2023-05-08T00:26:06.300Z,29.52
2023-05-08T00:27:06.279Z,33.05
2023-05-08T00:28:06.268Z,33.68
2023-05-08T00:29:06.868Z,30.19
2023-05-08T00:30:06.259Z,29.06
2023-05-08T00:31:06.257Z,26.39
2023-05-08T00:32:06.290Z,30.49
2023-05-08T00:33:06.271Z,30.24
2023-05-08T00:34:06.214Z,26.87
2023-05-08T00:35:06.214Z,28.82
2023-05-08T00:36:06.187Z,33.40
2023-05-08T00:37:06.189Z,29.00
2023-05-08T00:38:06.159Z,26.95
2023-05-08T00:39:06.155Z,31.59
2023-05-08T00:40:06.136Z,28.63
2023-05-08T00:41:06.146Z,29.67
2023-05-08T00:42:06.104Z,27.32
2023-05-08T00:43:06.108Z,29.36
2023-05-08T00:44:06.090Z,26.98
2023-05-08T00:45:06.091Z,25.00
2023-05-08T00:46:06.095Z,30.93
2023-05-08T00:47:06.081Z,28.75
2023-05-08T00:48:06.077Z,29.87
2023-05-08T00:49:06.077Z,29.18
2023-05-08T00:50:06.049Z,33.18
2023-05-08T00:51:06.053Z,34.84
2023-05-08T00:52:06.047Z,32.10
2023-05-08T00:53:06.022Z,30.06
2023-05-08T00:54:06.023Z,28.52
2023-05-08T00:55:06.011Z,31.95
2023-05-08T00:56:05.998Z,29.04
2023-05-08T00:57:06.003Z,29.56
2023-05-08T00:58:05.976Z,28.84
2023-05-08T00:59:05.981Z,28.27
2023-05-08T01:00:06.049Z,30.34
2023-05-08T01:01:06.018Z,28.26
2023-05-08T01:02:05.953Z,31.08
2023-05-08T01:03:06.008Z,29.81
2023-05-08T01:04:05.925Z,28.88
2023-05-08T01:05:05.933Z,31.09
2023-05-08T01:06:05.949Z,29.51
2023-05-08T01:07:05.927Z,28.85
2023-05-08T01:08:05.879Z,26.81
2023-05-08T01:09:05.899Z,29.10
2023-05-08T01:10:05.854Z,30.22
2023-05-08T01:11:05.866Z,31.42
2023-05-08T01:12:05.842Z,33.68
2023-05-08T01:13:05.879Z,30.20
2023-05-08T01:14:05.831Z,29.36
2023-05-08T01:15:05.825Z,31.18
2023-05-08T01:16:05.796Z,28.01
2023-05-08T01:17:05.774Z,29.65
2023-05-08T01:18:05.828Z,29.94
2023-05-08T01:19:05.746Z,31.70
2023-05-08T01:20:05.715Z,31.21
2023-05-08T01:21:05.708Z,30.00
2023-05-08T01:22:05.667Z,28.23
2023-05-08T01:23:05.670Z,29.20
2023-05-08T01:24:05.632Z,29.27
2023-05-08T01:25:05.639Z,29.71
2023-05-08T01:26:05.596Z,28.80
2023-05-08T01:27:05.597Z,29.14
2023-05-08T01:28:05.573Z,28.44
2023-05-08T01:29:05.576Z,28.95
2023-05-08T01:30:05.539Z,28.99
2023-05-08T01:31:05.559Z,29.64
2023-05-08T01:32:05.536Z,31.92
2023-05-08T01:33:05.657Z,29.38
2023-05-08T01:34:05.614Z,30.59
2023-05-08T01:35:05.516Z,30.50
2023-05-08T01:36:05.487Z,29.71
2023-05-08T01:37:05.508Z,27.93
2023-05-08T01:38:05.466Z,28.38
2023-05-08T01:39:05.501Z,27.46
2023-05-08T01:40:05.467Z,31.01
2023-05-08T01:41:05.482Z,29.03
2023-05-08T01:42:05.460Z,29.59
2023-05-08T01:43:05.469Z,31.21
2023-05-08T01:44:05.438Z,30.69
2023-05-08T01:45:05.463Z,28.96
2023-05-08T01:46:05.421Z,30.41
2023-05-08T01:47:05.610Z,30.32
2023-05-08T01:48:05.465Z,30.51
2023-05-08T01:49:05.426Z,32.02
2023-05-08T01:50:05.404Z,31.68
2023-05-08T01:51:05.416Z,31.86
2023-05-08T01:52:05.379Z,28.26
2023-05-08T01:53:05.398Z,29.77
2023-05-08T01:54:06.884Z,28.38
2023-05-08T01:55:05.332Z,32.60
2023-05-08T01:56:05.271Z,29.22
2023-05-08T01:57:05.247Z,29.35
2023-05-08T01:58:05.179Z,31.58
2023-05-08T01:59:05.138Z,28.76
2023-05-08T02:00:05.078Z,29.43
2023-05-08T02:01:05.080Z,31.48
2023-05-08T02:02:05.043Z,29.31
2023-05-08T02:03:04.943Z,30.15
2023-05-08T02:04:04.910Z,29.00
2023-05-08T02:05:05.840Z,29.40
2023-05-08T02:06:04.794Z,30.01
2023-05-08T02:07:04.760Z,30.32
2023-05-08T02:08:04.702Z,32.97
2023-05-08T02:09:04.658Z,31.57
2023-05-08T02:10:04.646Z,31.08
2023-05-08T02:11:04.573Z,31.31
2023-05-08T02:12:04.528Z,33.13
2023-05-08T02:13:04.501Z,31.75
2023-05-08T02:14:04.438Z,26.58
2023-05-08T02:15:04.379Z,28.88
2023-05-08T02:16:04.349Z,29.08
2023-05-08T02:17:04.463Z,28.16
2023-05-08T02:18:04.280Z,27.19
2023-05-08T02:19:04.201Z,28.12
2023-05-08T02:20:04.225Z,29.58
2023-05-08T02:21:04.193Z,29.62
2023-05-08T02:22:04.196Z,28.87
2023-05-08T02:23:04.186Z,28.54
2023-05-08T02:24:04.188Z,30.40
2023-05-08T02:25:04.139Z,28.23
2023-05-08T02:26:04.160Z,30.08
2023-05-08T02:27:04.120Z,32.69
2023-05-08T02:28:04.122Z,32.18
2023-05-08T02:29:04.128Z,29.88
2023-05-08T02:30:04.103Z,27.81
2023-05-08T02:31:04.081Z,30.26
2023-05-08T02:32:04.142Z,29.37
2023-05-08T02:33:04.133Z,29.91
2023-05-08T02:34:04.085Z,27.79
2023-05-08T02:35:04.072Z,29.46
2023-05-08T02:36:04.072Z,30.15
2023-05-08T02:37:04.063Z,31.27
2023-05-08T02:38:04.062Z,31.63
2023-05-08T02:39:04.057Z,30.03
2023-05-08T02:40:04.068Z,29.08
2023-05-08T02:41:04.056Z,31.81
2023-05-08T02:42:04.082Z,27.73
2023-05-08T02:43:04.065Z,26.70
2023-05-08T02:44:04.060Z,28.94
2023-05-08T02:45:04.044Z,26.84
2023-05-08T02:46:04.082Z,28.67
2023-05-08T02:47:05.234Z,29.32
2023-05-08T02:48:04.028Z,28.69
2023-05-08T02:49:03.969Z,33.61
2023-05-08T02:50:03.923Z,29.17
2023-05-08T02:51:03.881Z,31.14
2023-05-08T02:52:03.857Z,31.70
2023-05-08T02:53:03.813Z,28.43
2023-05-08T02:54:03.785Z,31.75
2023-05-08T02:55:03.756Z,28.39
2023-05-08T02:56:03.701Z,28.29
2023-05-08T02:57:03.664Z,30.92
2023-05-08T02:58:03.645Z,27.60
2023-05-08T02:59:03.605Z,31.41
2023-05-08T03:00:03.582Z,30.64
2023-05-08T03:01:03.587Z,30.20
2023-05-08T03:02:03.497Z,29.42
2023-05-08T03:03:03.532Z,27.76
2023-05-08T03:04:03.423Z,31.32
2023-05-08T03:05:03.415Z,28.36
2023-05-08T03:06:03.364Z,30.18
2023-05-08T03:07:03.337Z,29.61
2023-05-08T03:08:03.406Z,30.78
2023-05-08T03:09:03.274Z,28.20
2023-05-08T03:10:04.047Z,28.03
2023-05-08T03:11:03.201Z,28.93
2023-05-08T03:12:03.174Z,29.59
2023-05-08T03:13:03.170Z,28.26
2023-05-08T03:14:03.212Z,28.01
2023-05-08T03:15:03.061Z,31.07
2023-05-08T03:16:03.080Z,26.85
2023-05-08T03:17:02.979Z,27.10
2023-05-08T03:18:02.989Z,26.01
2023-05-08T03:19:02.960Z,28.68
2023-05-08T03:20:02.888Z,27.91
2023-05-08T03:21:02.890Z,31.04
2023-05-08T03:22:02.855Z,30.13
2023-05-08T03:23:02.777Z,28.70
2023-05-08T03:24:02.788Z,31.39
2023-05-08T03:25:02.719Z,30.41
2023-05-08T03:26:02.695Z,28.88
2023-05-08T03:27:02.663Z,28.61
2023-05-08T03:28:02.638Z,29.66
2023-05-08T03:29:02.583Z,30.79
2023-05-08T03:30:02.568Z,30.54
2023-05-08T03:31:02.523Z,31.47
2023-05-08T03:32:02.505Z,28.73
2023-05-08T03:33:02.490Z,29.44
2023-05-08T03:34:02.427Z,30.22
2023-05-08T03:35:02.422Z,26.04
2023-05-08T03:36:02.384Z,25.12
2023-05-08T03:37:02.324Z,29.24
2023-05-08T03:38:02.312Z,32.01
2023-05-08T03:39:02.232Z,27.56
2023-05-08T03:40:02.207Z,28.51
2023-05-08T03:41:02.142Z,27.83
2023-05-08T03:42:02.142Z,29.17
2023-05-08T03:43:02.051Z,31.27
2023-05-08T03:44:02.203Z,28.69
2023-05-08T03:45:01.992Z,28.66
2023-05-08T03:46:01.919Z,30.32
2023-05-08T03:47:02.001Z,30.21
2023-05-08T03:48:01.867Z,26.39
2023-05-08T03:49:01.792Z,30.86
2023-05-08T03:50:01.805Z,30.66
2023-05-08T03:51:01.721Z,31.52
2023-05-08T03:52:01.659Z,29.38
2023-05-08T03:53:01.627Z,25.57
2023-05-08T03:54:01.584Z,26.59
2023-05-08T03:55:01.591Z,27.67
2023-05-08T03:56:01.526Z,26.81
2023-05-08T03:57:01.517Z,28.35
2023-05-08T03:58:01.534Z,28.55
2023-05-08T03:59:01.496Z,27.77
2023-05-08T04:00:01.497Z,28.39
2023-05-08T04:01:01.494Z,30.61
2023-05-08T04:02:01.527Z,29.58
2023-05-08T04:03:01.556Z,31.19
2023-05-08T04:04:01.532Z,27.78
2023-05-08T04:05:01.493Z,27.41
2023-05-08T04:06:01.511Z,29.11
2023-05-08T04:07:01.484Z,29.20
2023-05-08T04:08:01.489Z,30.41
2023-05-08T04:09:01.470Z,30.14
2023-05-08T04:10:01.509Z,29.11
2023-05-08T04:11:01.493Z,27.18
2023-05-08T04:12:01.554Z,29.30
2023-05-08T04:13:01.545Z,30.89
2023-05-08T04:14:01.480Z,30.16
2023-05-08T04:15:01.473Z,31.53
2023-05-08T04:16:01.472Z,30.39
2023-05-08T04:17:01.499Z,27.61
2023-05-08T04:18:01.534Z,29.64
2023-05-08T04:19:01.438Z,31.09
2023-05-08T04:20:01.440Z,28.52
2023-05-08T04:21:01.430Z,31.18
2023-05-08T04:22:01.422Z,27.68
2023-05-08T04:23:01.419Z,31.17
2023-05-08T04:24:01.417Z,30.14
2023-05-08T04:25:01.391Z,29.00
2023-05-08T04:26:01.404Z,27.60
2023-05-08T04:27:01.370Z,31.91
2023-05-08T04:28:01.384Z,27.14
2023-05-08T04:29:01.357Z,28.95
2023-05-08T04:30:01.356Z,26.30
2023-05-08T04:31:01.343Z,26.46
2023-05-08T04:32:01.492Z,26.48
2023-05-08T04:33:01.356Z,29.45
2023-05-08T04:34:01.311Z,29.78
2023-05-08T04:35:01.307Z,29.12
2023-05-08T04:36:01.325Z,28.60
2023-05-08T04:37:01.291Z,31.53
2023-05-08T04:38:01.276Z,28.22
2023-05-08T04:39:01.269Z,28.63
2023-05-08T04:40:01.274Z,25.67
2023-05-08T04:41:01.289Z,28.36
2023-05-08T04:42:01.239Z,30.39
2023-05-08T04:43:01.221Z,28.65
2023-05-08T04:44:01.215Z,26.84
2023-05-08T04:45:01.225Z,25.73
2023-05-08T04:46:01.237Z,32.72
2023-05-08T04:47:01.181Z,30.03
2023-05-08T04:48:01.285Z,28.53
2023-05-08T04:49:01.174Z,29.02
2023-05-08T04:50:02.759Z,33.23
2023-05-08T04:51:01.180Z,30.61
2023-05-08T04:52:01.144Z,30.37
2023-05-08T04:53:01.136Z,31.84
2023-05-08T04:54:01.132Z,26.88
2023-05-08T04:55:01.123Z,28.74
2023-05-08T04:56:01.113Z,28.74
2023-05-08T04:57:01.098Z,27.16
2023-05-08T04:58:01.086Z,29.04
2023-05-08T04:59:01.066Z,29.95
2023-05-08T05:00:01.202Z,33.53
2023-05-08T05:01:01.037Z,27.58
2023-05-08T05:02:01.079Z,28.39
2023-05-08T05:03:01.029Z,31.03
2023-05-08T05:04:01.088Z,31.94
2023-05-08T05:05:00.992Z,32.93
2023-05-08T05:06:00.986Z,28.73
2023-05-08T05:07:00.970Z,27.19
2023-05-08T05:08:00.961Z,30.12
2023-05-08T05:09:00.947Z,28.68
2023-05-08T05:10:00.940Z,30.23
2023-05-08T05:11:00.921Z,27.39
2023-05-08T05:12:00.923Z,27.61
2023-05-08T05:13:00.981Z,30.02
2023-05-08T05:14:00.976Z,29.87
2023-05-08T05:15:01.185Z,26.51
2023-05-08T05:16:00.993Z,33.63
2023-05-08T05:17:00.879Z,29.87
2023-05-08T05:18:00.865Z,31.86
2023-05-08T05:19:00.849Z,27.07
2023-05-08T05:20:00.822Z,27.11
2023-05-08T05:21:00.834Z,27.77
2023-05-08T05:22:00.786Z,31.33
2023-05-08T05:23:00.775Z,32.82
2023-05-08T05:24:00.762Z,28.94
2023-05-08T05:25:01.111Z,31.83
2023-05-08T05:26:00.730Z,36.86
2023-05-08T05:27:00.734Z,38.26
2023-05-08T05:28:01.606Z,39.82
2023-05-08T05:29:00.671Z,44.94
2023-05-08T05:30:01.531Z,48.99
2023-05-08T05:31:00.695Z,54.18
2023-05-08T05:32:00.688Z,58.30
2023-05-08T05:33:00.653Z,66.05
2023-05-08T05:34:00.587Z,75.25
2023-05-08T05:35:00.576Z,79.80
2023-05-08T05:36:00.542Z,83.49
2023-05-08T05:37:00.472Z,94.14
2023-05-08T05:38:00.487Z,107.02
2023-05-08T05:39:00.407Z,116.34
2023-05-08T05:40:00.378Z,125.05
2023-05-08T05:41:00.321Z,135.47
2023-05-08T05:42:00.303Z,149.90
2023-05-08T05:43:00.274Z,161.79
2023-05-08T05:44:00.276Z,164.03
2023-05-08T05:45:00.233Z,175.24
2023-05-08T05:46:00.202Z,191.04
2023-05-08T05:47:00.287Z,199.45
2023-05-08T05:48:00.384Z,209.43
2023-05-08T05:49:00.181Z,220.19
2023-05-08T05:50:00.199Z,232.03
2023-05-08T05:51:00.287Z,241.64
2023-05-08T05:52:00.156Z,249.55
2023-05-08T05:53:00.170Z,249.18
2023-05-08T05:54:00.151Z,249.50
2023-05-08T05:55:00.155Z,250.00
2023-05-08T05:56:00.135Z,250.00
2023-05-08T05:57:00.131Z,249.02
2023-05-08T05:58:00.081Z,248.65
2023-05-08T05:59:00.119Z,248.14
2023-05-08T06:00:00.133Z,253.68
2023-05-08T06:01:00.056Z,248.08
2023-05-08T06:02:00.127Z,249.04
2023-05-08T06:03:00.278Z,250.00
2023-05-08T06:04:00.151Z,250.00
2023-05-08T06:04:59.983Z,249.37
2023-05-08T06:05:59.974Z,249.11
2023-05-08T06:06:59.957Z,249.74
2023-05-08T06:07:59.953Z,248.76
2023-05-08T06:09:00.625Z,249.52
2023-05-08T06:09:59.909Z,249.19
2023-05-08T06:10:59.896Z,248.58
2023-05-08T06:11:59.932Z,247.19
2023-05-08T06:13:00.113Z,247.65
2023-05-08T06:13:59.949Z,243.22
2023-05-08T06:14:59.887Z,242.44
2023-05-08T06:15:59.892Z,244.61
2023-05-08T06:16:59.905Z,246.40
2023-05-08T06:17:59.897Z,247.09
2023-05-08T06:19:01.641Z,246.33
2023-05-08T06:19:59.865Z,242.34
2023-05-08T06:20:59.903Z,243.31
2023-05-08T06:21:59.857Z,235.96
2023-05-08T06:22:59.837Z,233.14
2023-05-08T06:23:59.862Z,229.14
2023-05-08T06:24:59.903Z,225.28
2023-05-08T06:25:59.850Z,220.73
2023-05-08T06:26:59.877Z,209.78
2023-05-08T06:27:59.881Z,193.75
2023-05-08T06:28:59.870Z,182.15
2023-05-08T06:29:59.860Z,173.73
2023-05-08T06:30:59.933Z,161.92
2023-05-08T06:32:00.630Z,151.99
2023-05-08T06:32:59.888Z,139.83
2023-05-08T06:33:59.873Z,130.97
2023-05-08T06:34:59.862Z,121.92
2023-05-08T06:35:59.946Z,113.84
2023-05-08T06:36:59.879Z,104.50
2023-05-08T06:37:59.986Z,99.37
2023-05-08T06:38:59.912Z,92.95
2023-05-08T06:40:11.090Z,82.95
2023-05-08T06:41:00.919Z,82.97
2023-05-08T06:41:59.840Z,78.64
2023-05-08T06:42:59.807Z,70.67
2023-05-08T06:43:59.804Z,66.94
2023-05-08T06:44:59.716Z,64.72
2023-05-08T06:45:59.703Z,60.37
2023-05-08T06:46:59.623Z,59.91
2023-05-08T06:47:59.632Z,57.84
2023-05-08T06:48:59.541Z,56.33
2023-05-08T06:49:59.494Z,51.34
2023-05-08T06:50:59.478Z,48.29
2023-05-08T06:51:59.507Z,44.03
2023-05-08T06:52:59.514Z,44.00
2023-05-08T06:53:59.510Z,39.05
2023-05-08T06:54:59.537Z,37.71
2023-05-08T06:55:59.521Z,34.48
2023-05-08T06:56:59.534Z,31.62
2023-05-08T06:57:59.546Z,28.60
2023-05-08T06:59:07.638Z,27.13
2023-05-08T07:00:00.531Z,27.25
2023-05-08T07:00:59.489Z,27.56
2023-05-08T07:01:59.476Z,26.13
2023-05-08T07:02:59.486Z,27.10
2023-05-08T07:03:59.377Z,22.45
2023-05-08T07:04:59.397Z,23.72
2023-05-08T07:05:59.295Z,25.38
2023-05-08T07:06:59.268Z,25.00
2023-05-08T07:07:59.220Z,24.59
2023-05-08T07:08:59.198Z,27.10
2023-05-08T07:09:59.200Z,27.43
2023-05-08T07:10:59.114Z,30.51
2023-05-08T07:11:59.116Z,30.16
2023-05-08T07:12:59.122Z,29.46
2023-05-08T07:13:59.078Z,26.82
2023-05-08T07:14:59.616Z,25.62
2023-05-08T07:15:59.073Z,28.02
2023-05-08T07:16:59.055Z,25.00
2023-05-08T07:17:59.110Z,27.40
2023-05-08T07:18:59.035Z,27.72
2023-05-08T07:19:59.019Z,25.16
2023-05-08T07:20:59.970Z,25.32
2023-05-08T07:21:58.965Z,25.29
2023-05-08T07:22:58.903Z,21.09
2023-05-08T07:23:58.916Z,16.89
2023-05-08T07:24:58.815Z,14.79
2023-05-08T07:25:58.780Z,24.98
2023-05-08T07:26:58.748Z,26.51
2023-05-08T07:28:00.492Z,27.12
2023-05-08T07:28:58.810Z,26.38
2023-05-08T07:29:59.673Z,26.62
2023-05-08T07:30:58.810Z,27.60
2023-05-08T07:31:58.893Z,25.04
2023-05-08T07:32:58.869Z,27.13
2023-05-08T07:33:58.855Z,25.62
2023-05-08T07:34:58.876Z,27.27
2023-05-08T07:35:58.876Z,25.46
2023-05-08T07:36:58.896Z,29.37
2023-05-08T07:37:58.897Z,30.26
2023-05-08T07:38:58.897Z,31.48
2023-05-08T07:39:59.223Z,30.35
2023-05-08T07:40:58.924Z,30.29
2023-05-08T07:41:58.898Z,33.39
2023-05-08T07:42:58.908Z,32.90
2023-05-08T07:43:58.906Z,32.31
2023-05-08T07:44:58.951Z,32.88
2023-05-08T07:45:58.919Z,32.49
2023-05-08T07:46:58.971Z,31.02
2023-05-08T07:47:59.022Z,30.20
2023-05-08T07:48:58.959Z,28.45
2023-05-08T07:49:58.975Z,30.80
2023-05-08T07:50:58.979Z,26.50
2023-05-08T07:51:59.583Z,25.10
2023-05-08T07:52:59.012Z,25.24
2023-05-08T07:53:59.045Z,26.64
2023-05-08T07:54:59.042Z,25.26
2023-05-08T07:55:59.060Z,25.15
2023-05-08T07:56:59.069Z,25.17
2023-05-08T07:57:59.084Z,26.95
2023-05-08T07:58:59.097Z,26.80
2023-05-08T07:59:59.101Z,25.36
2023-05-08T08:00:59.120Z,25.00
2023-05-08T08:01:59.187Z,25.52
2023-05-08T08:02:59.257Z,26.21
2023-05-08T08:03:59.332Z,25.84
2023-05-08T08:04:59.227Z,26.50
2023-05-08T08:05:59.255Z,26.41
2023-05-08T08:06:59.282Z,27.28
2023-05-08T08:07:59.291Z,26.42
2023-05-08T08:08:59.331Z,27.32
2023-05-08T08:09:59.317Z,25.37
2023-05-08T08:11:00.146Z,25.50
2023-05-08T08:11:59.465Z,28.29
2023-05-08T08:12:59.475Z,26.26
2023-05-08T08:13:59.444Z,27.86
2023-05-08T08:14:59.479Z,28.91
2023-05-08T08:15:59.479Z,29.56
2023-05-08T08:16:59.550Z,29.76
2023-05-08T08:17:59.602Z,25.08
2023-05-08T08:18:59.547Z,30.17
2023-05-08T08:19:59.551Z,27.40
2023-05-08T08:20:59.603Z,25.53
2023-05-08T08:21:59.615Z,27.02
2023-05-08T08:22:59.643Z,29.17
2023-05-08T08:23:59.644Z,31.39
2023-05-08T08:24:59.717Z,32.31
2023-05-08T08:25:59.674Z,27.48
2023-05-08T08:26:59.726Z,33.53
2023-05-08T08:27:59.825Z,30.33
2023-05-08T08:28:59.788Z,30.23
2023-05-08T08:30:12.980Z,32.19
2023-05-08T08:31:00.781Z,27.83
2023-05-08T08:31:59.732Z,17.40
2023-05-08T08:32:59.789Z,16.99
2023-05-08T08:33:59.684Z,19.34
2023-05-08T08:34:59.653Z,26.06
2023-05-08T08:35:59.620Z,29.35
2023-05-08T08:36:59.586Z,38.91
2023-05-08T08:37:59.565Z,39.51
2023-05-08T08:38:59.518Z,45.66
2023-05-08T08:39:59.507Z,47.46
2023-05-08T08:40:59.461Z,51.19
2023-05-08T08:41:59.448Z,61.29
2023-05-08T08:42:59.381Z,68.09
2023-05-08T08:43:59.424Z,74.61
2023-05-08T08:44:59.286Z,80.65
2023-05-08T08:45:59.450Z,87.45
2023-05-08T08:46:59.307Z,95.60
2023-05-08T08:47:59.319Z,99.78
2023-05-08T08:48:59.269Z,109.92
2023-05-08T08:49:59.256Z,117.95
2023-05-08T08:51:00.207Z,118.27
2023-05-08T08:51:59.152Z,120.38
2023-05-08T08:52:59.110Z,126.41
2023-05-08T08:53:59.059Z,136.30
2023-05-08T08:54:58.989Z,153.12
2023-05-08T08:55:58.935Z,159.26
2023-05-08T08:56:58.882Z,167.85
2023-05-08T08:57:58.830Z,174.21
2023-05-08T08:58:58.782Z,178.96
2023-05-08T08:59:58.801Z,163.44
2023-05-08T09:00:58.667Z,147.43
2023-05-08T09:01:58.675Z,139.49
2023-05-08T09:02:58.673Z,129.56
2023-05-08T09:03:58.664Z,116.72
2023-05-08T09:04:58.471Z,108.05
2023-05-08T09:05:58.444Z,106.85
2023-05-08T09:06:58.399Z,103.59
2023-05-08T09:07:58.385Z,96.93
2023-05-08T09:08:59.225Z,95.45
2023-05-08T09:09:58.348Z,90.66
2023-05-08T09:10:58.338Z,90.22
2023-05-08T09:11:58.299Z,86.77
2023-05-08T09:12:58.287Z,87.70
2023-05-08T09:13:58.276Z,83.37
2023-05-08T09:14:58.239Z,81.85
2023-05-08T09:15:58.341Z,82.36
2023-05-08T09:16:58.214Z,84.00
2023-05-08T09:17:58.225Z,83.70
2023-05-08T09:18:58.171Z,85.31
2023-05-08T09:19:58.180Z,84.78
2023-05-08T09:20:58.167Z,84.74
2023-05-08T09:21:58.166Z,76.64
2023-05-08T09:22:58.156Z,71.49
2023-05-08T09:23:58.138Z,71.97
2023-05-08T09:24:58.118Z,77.82
2023-05-08T09:25:58.101Z,86.85
2023-05-08T09:26:58.157Z,88.49
2023-05-08T09:27:58.116Z,93.79
2023-05-08T09:28:58.118Z,102.14
2023-05-08T09:29:58.110Z,107.05
2023-05-08T09:30:58.114Z,114.62
2023-05-08T09:31:58.193Z,119.40
2023-05-08T09:32:58.125Z,125.60
2023-05-08T09:33:58.068Z,132.14
2023-05-08T09:34:58.093Z,137.34
2023-05-08T09:35:58.109Z,143.57
2023-05-08T09:36:58.037Z,146.52
2023-05-08T09:37:57.984Z,152.51
2023-05-08T09:38:57.908Z,159.92
2023-05-08T09:39:57.872Z,161.52
2023-05-08T09:40:57.841Z,166.86
2023-05-08T09:41:57.783Z,171.11
2023-05-08T09:42:57.785Z,177.80
2023-05-08T09:43:57.814Z,181.89
2023-05-08T09:44:57.803Z,187.32
2023-05-08T09:45:57.728Z,190.85
2023-05-08T09:46:57.700Z,194.80
2023-05-08T09:47:57.817Z,200.82
2023-05-08T09:48:57.694Z,207.14
2023-05-08T09:49:57.660Z,208.10
2023-05-08T09:50:57.627Z,211.16
2023-05-08T09:51:57.636Z,215.35
2023-05-08T09:52:57.622Z,218.39
2023-05-08T09:53:57.601Z,224.35
2023-05-08T09:54:57.585Z,230.13
2023-05-08T09:55:57.566Z,234.02
2023-05-08T09:56:57.548Z,239.25
2023-05-08T09:57:57.586Z,242.84
2023-05-08T09:58:57.544Z,247.31
2023-05-08T09:59:57.666Z,249.20
2023-05-08T10:00:57.548Z,250.00
2023-05-08T10:01:57.506Z,250.00
2023-05-08T10:02:57.499Z,250.00
2023-05-08T10:03:57.616Z,249.42
2023-05-08T10:04:57.453Z,249.51
2023-05-08T10:05:57.416Z,249.77
2023-05-08T10:06:57.396Z,249.39
2023-05-08T10:07:57.364Z,250.76
2023-05-08T10:08:57.336Z,250.00
2023-05-08T10:09:57.307Z,249.26
2023-05-08T10:10:57.265Z,249.85
2023-05-08T10:11:57.241Z,248.25
2023-05-08T10:12:57.270Z,249.59
2023-05-08T10:13:57.171Z,249.92
2023-05-08T10:14:57.168Z,248.93
2023-05-08T10:15:57.191Z,248.54
2023-05-08T10:16:57.163Z,250.00
2023-05-08T10:17:57.137Z,250.00
2023-05-08T10:18:57.117Z,249.27
2023-05-08T10:19:57.148Z,243.96
2023-05-08T10:20:57.045Z,240.60
2023-05-08T10:21:57.012Z,242.01
2023-05-08T10:22:57.011Z,242.48
2023-05-08T10:23:56.978Z,245.61
2023-05-08T10:24:56.979Z,247.85
2023-05-08T10:25:56.953Z,249.93
2023-05-08T10:27:06.350Z,249.68
2023-05-08T10:27:57.874Z,249.91
2023-05-08T10:28:56.780Z,250.82
2023-05-08T10:29:56.746Z,252.98
2023-05-08T10:30:56.696Z,256.58
2023-05-08T10:31:56.601Z,260.84
2023-05-08T10:32:56.568Z,249.21
2023-05-08T10:33:56.453Z,249.48
2023-05-08T10:34:56.397Z,248.32
2023-05-08T10:35:56.413Z,248.74
2023-05-08T10:36:57.252Z,248.11
2023-05-08T10:37:56.211Z,242.95
2023-05-08T10:38:56.139Z,243.02
2023-05-08T10:39:56.074Z,241.00
2023-05-08T10:40:55.997Z,238.23
2023-05-08T10:41:55.957Z,233.21
2023-05-08T10:42:56.662Z,236.26
2023-05-08T10:43:55.833Z,237.41
2023-05-08T10:44:55.761Z,238.46
2023-05-08T10:45:55.738Z,236.91
2023-05-08T10:46:55.625Z,234.40
2023-05-08T10:47:55.647Z,232.51
2023-05-08T10:48:55.491Z,230.62
2023-05-08T10:49:55.443Z,229.10
2023-05-08T10:50:55.352Z,229.95
2023-05-08T10:51:55.321Z,233.03
2023-05-08T10:52:55.300Z,227.31
2023-05-08T10:53:55.272Z,227.41
2023-05-08T10:54:56.248Z,222.68
2023-05-08T10:55:55.213Z,219.64
2023-05-08T10:56:55.211Z,218.64
2023-05-08T10:57:55.170Z,216.26
2023-05-08T10:58:55.146Z,213.14
2023-05-08T10:59:55.116Z,205.65
2023-05-08T11:00:55.097Z,207.82
2023-05-08T11:01:55.138Z,202.29
2023-05-08T11:02:55.112Z,204.72
2023-05-08T11:03:55.295Z,203.02
2023-05-08T11:04:55.005Z,193.24
2023-05-08T11:05:54.981Z,189.03
2023-05-08T11:06:54.970Z,183.60
2023-05-08T11:07:55.704Z,179.16
2023-05-08T11:08:54.969Z,170.13
2023-05-08T11:09:54.944Z,161.84
2023-05-08T11:10:54.907Z,158.71
2023-05-08T11:11:54.931Z,151.02
2023-05-08T11:12:55.014Z,145.53
2023-05-08T11:13:54.878Z,139.73
2023-05-08T11:14:54.840Z,135.20
2023-05-08T11:15:54.831Z,131.75
2023-05-08T11:16:54.810Z,126.01
2023-05-08T11:17:54.754Z,119.53
2023-05-08T11:18:54.670Z,115.43
2023-05-08T11:19:55.256Z,110.77
2023-05-08T11:20:54.602Z,104.67
2023-05-08T11:21:54.562Z,96.84
2023-05-08T11:22:54.554Z,91.75
2023-05-08T11:23:54.495Z,88.04
2023-05-08T11:24:54.480Z,84.81
2023-05-08T11:25:54.428Z,80.15
2023-05-08T11:26:54.421Z,77.56
2023-05-08T11:27:54.368Z,71.30
2023-05-08T11:28:54.363Z,70.98
2023-05-08T11:29:54.306Z,70.30
2023-05-08T11:30:54.300Z,68.76
2023-05-08T11:31:54.326Z,63.18
2023-05-08T11:32:54.267Z,61.50
2023-05-08T11:33:54.237Z,61.78
2023-05-08T11:34:54.198Z,57.00
2023-05-08T11:35:54.196Z,53.07
2023-05-08T11:36:54.159Z,52.54
2023-05-08T11:37:54.154Z,47.48
2023-05-08T11:38:56.279Z,46.13
2023-05-08T11:39:54.151Z,43.29
2023-05-08T11:40:54.080Z,38.63
2023-05-08T11:41:54.078Z,39.22
2023-05-08T11:42:54.037Z,34.22
2023-05-08T11:43:54.042Z,32.39
2023-05-08T11:44:53.990Z,31.34
2023-05-08T11:45:53.985Z,30.43
2023-05-08T11:46:54.047Z,25.00
2023-05-08T11:47:53.997Z,27.71
2023-05-08T11:48:53.922Z,26.01
2023-05-08T11:49:53.909Z,25.18
2023-05-08T11:50:53.874Z,26.76
2023-05-08T11:51:53.867Z,28.08
2023-05-08T11:52:53.854Z,24.80
2023-05-08T11:53:53.846Z,26.19
2023-05-08T11:54:53.823Z,25.72
2023-05-08T11:55:53.816Z,25.65
2023-05-08T11:56:53.814Z,27.70
2023-05-08T11:57:53.805Z,25.65
2023-05-08T11:58:53.792Z,26.64
2023-05-08T11:59:53.791Z,25.99
2023-05-08T12:00:53.872Z,28.42
2023-05-08T12:02:07.044Z,28.69
2023-05-08T12:02:54.789Z,27.60
2023-05-08T12:03:53.745Z,28.51
2023-05-08T12:04:53.604Z,21.91
2023-05-08T12:05:53.567Z,22.63
2023-05-08T12:06:53.512Z,21.84
2023-05-08T12:07:53.449Z,26.65
2023-05-08T12:08:53.416Z,27.13
2023-05-08T12:09:53.371Z,36.04
2023-05-08T12:10:53.301Z,36.97
2023-05-08T12:11:53.339Z,48.36
2023-05-08T12:12:53.220Z,51.02
2023-05-08T12:13:53.149Z,47.40
2023-05-08T12:14:53.126Z,43.53
2023-05-08T12:15:53.121Z,39.16
2023-05-08T12:16:53.141Z,29.58
2023-05-08T12:17:53.110Z,30.20
2023-05-08T12:18:53.126Z,38.34
2023-05-08T12:19:53.114Z,47.61
2023-05-08T12:20:53.136Z,55.54
2023-05-08T12:21:53.128Z,60.83
2023-05-08T12:22:53.158Z,71.97
2023-05-08T12:23:53.111Z,79.30
2023-05-08T12:24:53.125Z,81.20
2023-05-08T12:25:54.831Z,80.82
2023-05-08T12:26:53.111Z,81.05
2023-05-08T12:27:53.081Z,81.54
2023-05-08T12:28:53.080Z,80.49
2023-05-08T12:29:53.051Z,84.93
2023-05-08T12:30:53.081Z,86.52
2023-05-08T12:31:53.012Z,89.32
2023-05-08T12:32:53.052Z,93.07
2023-05-08T12:33:52.995Z,97.79
2023-05-08T12:34:52.995Z,99.30
2023-05-08T12:35:52.972Z,101.72
2023-05-08T12:36:52.970Z,104.29
2023-05-08T12:37:52.942Z,105.12
2023-05-08T12:38:52.924Z,107.42
2023-05-08T12:39:52.912Z,108.02
2023-05-08T12:40:52.897Z,108.17
2023-05-08T12:41:52.929Z,110.08
2023-05-08T12:42:52.856Z,110.82
2023-05-08T12:43:52.910Z,113.55
2023-05-08T12:44:52.801Z,114.13
2023-05-08T12:45:52.828Z,114.07